createdAt,value
2018-09-11T00:00:41.629Z,73.47
2018-09-11T00:03:14.997Z,73.52
2018-09-11T00:08:54.912Z,73.54
2018-09-11T00:11:29.158Z,72.77
2018-09-11T00:14:03.181Z,73.20
2018-09-11T00:16:38.299Z,73.09
2018-09-11T00:19:12.224Z,73.05
2018-09-11T00:21:44.569Z,73.72
2018-09-11T00:26:57.008Z,72.63
2018-09-11T00:29:35.704Z,72.37
2018-09-11T00:32:08.197Z,72.38
2018-09-11T00:34:39.860Z,72.66
2018-09-11T00:37:18.745Z,72.56
2018-09-11T00:39:54.185Z,72.33
2018-09-11T00:42:25.065Z,73.27
2018-09-11T00:44:58.158Z,72.75
2018-09-11T00:47:30.712Z,72.21
2018-09-11T00:50:03.761Z,72.15
2018-09-11T00:52:36.917Z,72.40
2018-09-11T00:55:10.916Z,71.79
2018-09-11T00:57:42.211Z,71.96
2018-09-11T01:00:13.570Z,72.92
2018-09-11T01:02:43.881Z,72.84
2018-09-11T01:05:15.702Z,72.62
2018-09-11T01:07:48.720Z,73.25
2018-09-11T01:10:21.344Z,73.29
2018-09-11T01:12:52.822Z,72.91
2018-09-11T01:15:24.389Z,73.45
2018-09-11T01:17:54.709Z,73.09
2018-09-11T01:20:26.733Z,73.59
2018-09-11T01:22:57.199Z,73.53
2018-09-11T01:25:29.494Z,74.04
2018-09-11T01:27:59.407Z,73.85
2018-09-11T01:30:29.502Z,73.67
2018-09-11T01:32:59.996Z,74.08
2018-09-11T01:35:30.299Z,74.54
2018-09-11T01:38:01.666Z,73.51
2018-09-11T01:40:33.700Z,74.49
2018-09-11T01:43:04.112Z,74.59
2018-09-11T01:45:34.471Z,74.00
2018-09-11T01:48:05.873Z,74.69
2018-09-11T01:50:35.838Z,74.31
2018-09-11T01:53:06.059Z,75.38
2018-09-11T01:55:37.315Z,74.68
2018-09-11T01:58:08.811Z,75.87
2018-09-11T02:00:38.831Z,74.88
2018-09-11T02:03:09.419Z,75.65
2018-09-11T02:05:39.579Z,75.47
2018-09-11T02:08:10.625Z,74.95
2018-09-11T02:10:41.352Z,76.29
2018-09-11T02:13:13.022Z,75.84
2018-09-11T02:15:45.531Z,76.56
2018-09-11T02:18:18.086Z,75.94
2018-09-11T02:20:49.765Z,75.42
2018-09-11T02:23:20.041Z,75.34
2018-09-11T02:25:51.250Z,74.97
2018-09-11T02:28:23.057Z,76.40
2018-09-11T02:30:54.818Z,76.35
2018-09-11T02:33:25.245Z,76.77
2018-09-11T02:35:55.926Z,77.06
2018-09-11T02:38:27.938Z,76.77
2018-09-11T02:41:01.031Z,76.52
2018-09-11T02:43:31.282Z,76.58
2018-09-11T02:46:03.314Z,76.84
2018-09-11T02:48:34.045Z,76.63
2018-09-11T02:51:05.395Z,77.53
2018-09-11T02:53:40.566Z,77.90
2018-09-11T02:56:11.558Z,77.63
2018-09-11T02:58:42.824Z,76.99
2018-09-11T03:01:14.326Z,77.88
2018-09-11T03:03:44.888Z,78.89
2018-09-11T03:06:21.575Z,78.77
2018-09-11T03:08:53.215Z,79.40
2018-09-11T03:11:23.356Z,81.12
2018-09-11T03:13:53.760Z,80.75
2018-09-11T03:16:25.931Z,81.96
2018-09-11T03:18:56.381Z,81.90
2018-09-11T03:21:30.867Z,81.89
2018-09-11T03:24:10.343Z,82.50
2018-09-11T03:26:42.811Z,82.03
2018-09-11T03:29:15.303Z,82.12
2018-09-11T03:31:46.197Z,82.27
2018-09-11T03:34:17.150Z,82.87
2018-09-11T03:36:51.220Z,82.90
2018-09-11T03:39:21.589Z,83.31
2018-09-11T03:41:52.285Z,82.66
2018-09-11T03:44:25.330Z,82.86
2018-09-11T03:46:55.926Z,83.71
2018-09-11T03:52:41.545Z,83.91
2018-09-11T03:55:14.217Z,84.13
2018-09-11T03:57:49.554Z,84.31
2018-09-11T04:00:20.261Z,84.93
2018-09-11T04:02:52.051Z,85.56
2018-09-11T04:05:29.265Z,85.70
2018-09-11T04:08:06.343Z,85.41
2018-09-11T04:10:42.808Z,86.17
2018-09-11T04:13:19.659Z,85.75
2018-09-11T04:15:54.600Z,85.35
2018-09-11T04:18:26.456Z,85.55
2018-09-11T04:21:03.006Z,85.84
2018-09-11T04:23:38.243Z,86.25
2018-09-11T04:26:14.213Z,87.29
2018-09-11T04:28:49.664Z,88.91
2018-09-11T04:31:21.620Z,88.03
2018-09-11T04:33:52.048Z,88.73
2018-09-11T04:36:22.421Z,89.23
2018-09-11T04:39:01.092Z,89.14
2018-09-11T04:41:32.546Z,89.25
2018-09-11T04:44:04.621Z,89.55
2018-09-11T04:46:35.224Z,90.13
2018-09-11T04:49:06.343Z,89.45
2018-09-11T04:51:38.047Z,89.37
2018-09-11T04:54:09.144Z,89.38
2018-09-11T04:56:39.361Z,89.35
2018-09-11T04:59:09.793Z,89.38
2018-09-11T05:01:41.141Z,90.00
2018-09-11T05:04:11.719Z,90.24
2018-09-11T05:06:44.107Z,89.27
2018-09-11T05:09:14.926Z,89.57
2018-09-11T05:11:46.747Z,90.15
2018-09-11T05:14:19.879Z,89.59
2018-09-11T05:16:51.733Z,90.65
2018-09-11T05:19:32.615Z,89.37
2018-09-11T05:22:12.137Z,88.75
2018-09-11T05:24:43.344Z,88.84
2018-09-11T05:30:15.058Z,89.97
2018-09-11T05:32:50.281Z,88.44
2018-09-11T05:35:24.732Z,88.86
2018-09-11T05:37:58.549Z,88.54
2018-09-11T05:40:29.891Z,89.01
2018-09-11T05:43:01.533Z,88.57
2018-09-11T05:45:34.225Z,88.82
2018-09-11T05:48:12.608Z,88.43
2018-09-11T05:50:44.217Z,88.24
2018-09-11T05:53:14.492Z,88.37
2018-09-11T05:58:21.670Z,87.34
2018-09-11T06:00:54.737Z,87.81
2018-09-11T06:03:26.761Z,88.11
2018-09-11T06:06:00.756Z,86.18
2018-09-11T06:08:32.529Z,86.39
2018-09-11T06:11:11.563Z,86.66
2018-09-11T06:13:48.321Z,86.21
2018-09-11T06:16:30.916Z,86.79
2018-09-11T06:19:04.160Z,86.94
2018-09-11T06:21:36.943Z,87.42
2018-09-11T06:24:10.161Z,87.00
2018-09-11T06:26:49.089Z,86.56
2018-09-11T06:32:00.311Z,86.73
2018-09-11T06:34:32.668Z,86.64
2018-09-11T06:37:10.125Z,86.55
2018-09-11T06:39:45.741Z,86.87
2018-09-11T06:42:18.673Z,86.53
2018-09-11T06:44:53.588Z,86.80
2018-09-11T06:47:26.386Z,87.08
2018-09-11T06:49:58.325Z,87.60
2018-09-11T06:52:32.667Z,87.21
2018-09-11T06:55:20.808Z,86.26
2018-09-11T07:07:41.471Z,86.61
2018-09-11T07:10:29.914Z,85.73
2018-09-11T07:13:27.999Z,85.87
2018-09-11T07:16:02.311Z,86.54
2018-09-11T07:22:22.542Z,86.19
2018-09-11T07:25:04.912Z,86.26
2018-09-11T07:27:46.621Z,85.87
2018-09-11T07:30:31.986Z,85.20
2018-09-11T07:33:12.665Z,86.04
2018-09-11T07:35:56.680Z,85.48
2018-09-11T07:38:34.912Z,85.75
2018-09-11T07:41:26.018Z,85.07
2018-09-11T07:44:11.274Z,85.33
2018-09-11T07:47:00.212Z,85.58
2018-09-11T07:49:42.500Z,85.20
2018-09-11T07:52:22.581Z,84.94
2018-09-11T07:54:58.814Z,84.97
2018-09-11T07:57:35.043Z,84.01
2018-09-11T08:03:02.072Z,84.18
2018-09-11T08:05:40.574Z,83.83
2018-09-11T08:08:17.576Z,84.17
2018-09-11T08:10:53.665Z,83.39
2018-09-11T08:13:24.871Z,82.94
2018-09-11T08:15:55.831Z,82.72
2018-09-11T08:18:26.132Z,82.61
2018-09-11T08:20:56.533Z,82.29
2018-09-11T08:23:26.464Z,82.81
2018-09-11T08:25:57.314Z,82.42
2018-09-11T08:28:27.709Z,82.67
2018-09-11T08:30:58.774Z,82.16
2018-09-11T08:33:29.894Z,81.90
2018-09-11T08:36:06.662Z,82.53
2018-09-11T08:41:20.769Z,83.22
2018-09-11T08:43:59.195Z,83.36
2018-09-11T08:46:30.166Z,83.31
2018-09-11T08:49:07.117Z,83.73
2018-09-11T08:51:39.083Z,83.63
2018-09-11T08:54:16.410Z,84.52
2018-09-11T09:02:55.203Z,84.11
2018-09-11T09:07:05.363Z,83.39
2018-09-11T09:09:43.061Z,84.77
2018-09-11T09:12:14.904Z,84.34
2018-09-11T09:14:53.801Z,84.61
2018-09-11T09:17:26.018Z,84.09
2018-09-11T09:19:58.169Z,83.14
2018-09-11T09:22:29.099Z,83.94
2018-09-11T09:27:39.216Z,82.43
2018-09-11T09:30:11.219Z,82.77
2018-09-11T09:32:43.425Z,81.68
2018-09-11T09:35:16.570Z,82.20
2018-09-11T09:37:47.334Z,80.97
2018-09-11T09:40:20.755Z,81.67
2018-09-11T09:42:53.725Z,80.84
2018-09-11T09:45:29.365Z,80.79
2018-09-11T09:53:34.483Z,80.10
2018-09-11T09:56:12.077Z,81.24
2018-09-11T09:59:04.616Z,81.12
2018-09-11T10:04:55.222Z,81.60
2018-09-11T10:13:01.142Z,84.91
2018-09-11T10:15:40.550Z,85.54
2018-09-11T10:18:27.706Z,85.12
2018-09-11T10:23:47.431Z,86.62
2018-09-11T10:26:28.557Z,87.09
2018-09-11T10:29:02.366Z,86.62
2018-09-11T10:31:40.054Z,86.64
2018-09-11T10:34:15.286Z,86.08
2018-09-11T10:39:26.443Z,86.56
2018-09-11T10:41:58.434Z,86.72
2018-09-11T10:44:32.627Z,85.33
2018-09-11T10:47:05.150Z,86.01
2018-09-11T10:49:42.317Z,85.81
2018-09-11T10:55:14.956Z,85.57
2018-09-11T10:57:58.472Z,85.87
2018-09-11T11:00:43.231Z,84.14
2018-09-11T11:03:15.857Z,84.37
2018-09-11T11:05:57.051Z,83.99
2018-09-11T11:08:33.560Z,83.98
2018-09-11T11:11:16.568Z,84.00
2018-09-11T11:14:09.688Z,83.81
2018-09-11T11:20:08.556Z,83.67
2018-09-11T11:22:41.948Z,84.91
2018-09-11T11:30:59.806Z,85.20
2018-09-11T11:33:43.364Z,85.13
2018-09-11T11:36:22.380Z,84.73
2018-09-11T11:38:56.564Z,85.60
2018-09-11T11:41:40.907Z,84.96
2018-09-11T11:57:25.722Z,83.18
2018-09-11T11:59:56.587Z,83.52
2018-09-11T12:02:35.389Z,83.13
2018-09-11T12:05:28.076Z,83.64
2018-09-11T12:07:59.394Z,83.05
2018-09-11T12:10:34.195Z,83.09
2018-09-11T12:13:07.351Z,83.20
2018-09-11T12:15:37.509Z,83.89
2018-09-11T12:18:07.736Z,85.02
2018-09-11T12:20:37.713Z,84.89
2018-09-11T12:23:08.749Z,84.33
2018-09-11T12:25:42.967Z,85.03
2018-09-11T12:28:13.783Z,84.95
2018-09-11T12:30:45.539Z,85.30
2018-09-11T12:33:15.704Z,84.86
2018-09-11T12:35:47.493Z,85.25
2018-09-11T12:38:17.833Z,85.26
2018-09-11T12:40:49.451Z,85.66
2018-09-11T12:43:19.418Z,86.27
2018-09-11T12:45:49.524Z,86.94
2018-09-11T12:48:19.786Z,86.53
2018-09-11T12:50:52.281Z,86.52
2018-09-11T12:53:22.975Z,87.94
2018-09-11T12:55:55.379Z,87.46
2018-09-11T12:58:26.461Z,87.13
2018-09-11T13:00:56.348Z,86.63
2018-09-11T13:03:27.924Z,86.95
2018-09-11T13:05:58.864Z,87.01
2018-09-11T13:08:30.599Z,86.33
2018-09-11T13:11:00.806Z,85.97
2018-09-11T13:13:32.004Z,85.61
2018-09-11T13:16:02.103Z,85.84
2018-09-11T13:18:32.850Z,85.18
2018-09-11T13:21:03.438Z,86.17
2018-09-11T13:23:35.196Z,86.49
2018-09-11T13:26:05.313Z,85.82
2018-09-11T13:28:36.554Z,86.75
2018-09-11T13:31:07.280Z,88.15
2018-09-11T13:33:37.847Z,88.51
2018-09-11T13:36:08.781Z,89.32
2018-09-11T13:38:39.664Z,90.15
2018-09-11T13:41:10.026Z,90.10
2018-09-11T13:43:41.232Z,91.22
2018-09-11T13:46:11.278Z,91.50
2018-09-11T13:48:41.269Z,92.27
2018-09-11T13:51:13.565Z,92.48
2018-09-11T13:53:43.793Z,93.42
2018-09-11T13:56:14.797Z,93.75
2018-09-11T13:58:46.900Z,92.76
2018-09-11T14:01:22.869Z,93.76
2018-09-11T14:03:52.875Z,94.39
2018-09-11T14:06:23.031Z,93.77
2018-09-11T14:08:55.193Z,94.19
2018-09-11T14:11:25.296Z,94.81
2018-09-11T14:13:55.417Z,94.56
2018-09-11T14:16:25.538Z,95.18
2018-09-11T14:18:55.915Z,95.00
2018-09-11T14:21:26.394Z,95.15
2018-09-11T14:23:56.413Z,95.56
2018-09-11T14:26:27.051Z,94.99
2018-09-11T14:28:57.724Z,95.32
2018-09-11T14:31:28.864Z,96.01
2018-09-11T14:33:59.899Z,95.32
2018-09-11T14:39:12.328Z,96.04
2018-09-11T14:41:42.502Z,95.91
2018-09-11T14:44:13.519Z,95.61
2018-09-11T14:46:44.174Z,95.34
2018-09-11T14:49:17.539Z,95.57
2018-09-11T14:51:48.815Z,96.13
2018-09-11T14:54:18.937Z,96.09
2018-09-11T14:56:49.886Z,95.63
2018-09-11T14:59:22.211Z,95.44
2018-09-11T15:01:58.086Z,94.85
2018-09-11T15:04:29.844Z,95.02
2018-09-11T15:07:00.488Z,94.95
2018-09-11T15:09:37.542Z,94.45
2018-09-11T15:12:07.714Z,95.42
2018-09-11T15:14:39.173Z,94.76
2018-09-11T15:17:10.208Z,94.87
2018-09-11T15:19:39.998Z,95.02
2018-09-11T15:22:09.887Z,95.15
2018-09-11T15:24:39.961Z,95.63
2018-09-11T15:27:10.058Z,94.66
2018-09-11T15:29:40.110Z,94.72
2018-09-11T15:32:10.790Z,94.54
2018-09-11T15:34:40.627Z,94.61
2018-09-11T15:37:10.616Z,94.67
2018-09-11T15:39:40.681Z,94.68
2018-09-11T15:42:13.134Z,94.25
2018-09-11T15:44:43.799Z,95.09
2018-09-11T15:47:14.082Z,94.38
2018-09-11T15:52:25.839Z,95.27
2018-09-11T15:54:55.953Z,95.81
2018-09-11T15:57:26.052Z,95.12
2018-09-11T15:59:56.512Z,95.66
2018-09-11T16:02:26.801Z,96.52
2018-09-11T16:04:58.000Z,95.59
2018-09-11T16:07:28.064Z,96.10
2018-09-11T16:09:58.827Z,96.14
2018-09-11T16:12:31.163Z,95.98
2018-09-11T16:15:06.546Z,95.95
2018-09-11T16:17:40.171Z,96.32
2018-09-11T16:20:14.051Z,96.47
2018-09-11T16:22:45.171Z,96.45
2018-09-11T16:25:15.081Z,96.88
2018-09-11T16:27:58.569Z,96.61
2018-09-11T16:33:29.911Z,96.39
2018-09-11T16:36:03.939Z,97.67
2018-09-11T16:38:36.285Z,96.87
2018-09-11T16:41:10.473Z,97.10
2018-09-11T16:43:42.763Z,96.57
2018-09-11T16:46:13.796Z,97.48
2018-09-11T16:48:59.922Z,97.55
2018-09-11T16:51:30.300Z,97.04
2018-09-11T16:54:00.598Z,97.41
2018-09-11T16:56:34.808Z,97.42
2018-09-11T16:59:04.886Z,96.06
2018-09-11T17:01:35.406Z,94.66
2018-09-11T17:04:07.680Z,94.13
2018-09-11T17:06:40.044Z,94.88
2018-09-11T17:16:47.977Z,94.95
2018-09-11T17:19:18.637Z,94.43
2018-09-11T17:21:51.434Z,95.25
2018-09-11T17:24:22.023Z,95.33
2018-09-11T17:26:52.535Z,95.64
2018-09-11T17:29:22.933Z,95.36
2018-09-11T17:31:56.707Z,94.50
2018-09-11T17:34:26.833Z,94.72
2018-09-11T17:36:59.061Z,95.19
2018-09-11T17:39:29.020Z,95.50
2018-09-11T17:41:59.885Z,94.50
2018-09-11T17:44:30.704Z,94.85
2018-09-11T17:47:01.908Z,94.79
2018-09-11T17:49:34.736Z,94.24
2018-09-11T17:52:06.627Z,93.59
2018-09-11T17:54:37.402Z,93.79
2018-09-11T17:57:10.771Z,92.87
2018-09-11T17:59:40.789Z,92.46
2018-09-11T18:02:11.933Z,93.86
2018-09-11T18:04:42.544Z,93.70
2018-09-11T18:07:15.018Z,93.12
2018-09-11T18:09:45.206Z,92.77
2018-09-11T18:12:21.286Z,92.88
2018-09-11T18:14:51.734Z,93.22
2018-09-11T18:17:23.143Z,93.60
2018-09-11T18:19:53.121Z,93.11
2018-09-11T18:22:27.755Z,93.12
2018-09-11T18:24:58.664Z,93.73
2018-09-11T18:27:28.852Z,93.93
2018-09-11T18:29:59.806Z,94.38
2018-09-11T18:32:30.563Z,93.81
2018-09-11T18:35:01.799Z,93.88
2018-09-11T18:37:32.014Z,94.20
2018-09-11T18:40:02.140Z,93.69
2018-09-11T18:42:32.270Z,94.23
2018-09-11T18:45:03.318Z,94.03
2018-09-11T18:47:34.286Z,94.42
2018-09-11T18:50:05.931Z,94.15
2018-09-11T18:52:38.056Z,94.09
2018-09-11T18:55:08.820Z,93.54
2018-09-11T18:57:39.976Z,94.27
2018-09-11T19:00:10.502Z,93.59
2018-09-11T19:02:44.466Z,93.36
2018-09-11T19:05:15.972Z,93.31
2018-09-11T19:07:48.106Z,93.29
2018-09-11T19:10:19.583Z,93.93
2018-09-11T19:12:51.562Z,92.76
2018-09-11T19:15:21.879Z,92.48
2018-09-11T19:17:51.981Z,91.95
2018-09-11T19:20:25.144Z,92.22
2018-09-11T19:22:56.402Z,91.53
2018-09-11T19:25:30.399Z,91.83
2018-09-11T19:28:00.410Z,91.87
2018-09-11T19:30:32.675Z,92.72
2018-09-11T19:33:03.041Z,91.85
2018-09-11T19:35:33.526Z,92.14
2018-09-11T19:38:07.435Z,92.03
2018-09-11T19:40:38.855Z,91.61
2018-09-11T19:43:09.811Z,91.94
2018-09-11T19:45:40.571Z,91.77
2018-09-11T19:48:10.984Z,91.35
2018-09-11T19:50:41.790Z,91.61
2018-09-11T19:53:12.778Z,91.47
2018-09-11T19:55:44.118Z,91.44
2018-09-11T19:58:18.029Z,91.87
2018-09-11T20:01:05.199Z,91.19
2018-09-11T20:03:45.130Z,91.54
2018-09-11T20:07:03.375Z,91.56
2018-09-11T20:10:19.753Z,92.27
2018-09-11T20:16:02.178Z,92.39
2018-09-11T20:18:34.472Z,92.56
2018-09-11T20:21:06.803Z,92.33
2018-09-11T20:23:36.964Z,91.41
2018-09-11T20:26:11.298Z,90.89
2018-09-11T20:28:43.738Z,90.88
2018-09-11T20:31:14.118Z,91.55
2018-09-11T20:33:44.876Z,90.20
2018-09-11T20:36:16.404Z,91.76
2018-09-11T20:38:47.132Z,91.31
2018-09-11T20:41:19.009Z,91.69
2018-09-11T20:51:12.263Z,92.87
2018-09-11T20:53:45.707Z,94.23
2018-09-11T20:56:20.479Z,95.00
2018-09-11T20:58:53.372Z,94.49
2018-09-11T21:01:25.273Z,95.00
2018-09-11T21:03:59.985Z,94.53
2018-09-11T21:06:33.933Z,95.49
2018-09-11T21:09:05.235Z,95.08
2018-09-11T21:11:35.780Z,95.07
2018-09-11T21:14:07.580Z,95.33
2018-09-11T21:16:43.607Z,95.44
2018-09-11T21:19:16.307Z,95.47
2018-09-11T21:31:43.075Z,94.73
2018-09-11T21:34:14.229Z,95.14
2018-09-11T21:36:44.745Z,95.46
2018-09-11T21:39:14.773Z,95.66
2018-09-11T21:41:45.399Z,94.67
2018-09-11T21:44:17.148Z,95.23
2018-09-11T21:46:49.817Z,95.38
2018-09-11T21:49:22.923Z,95.89
2018-09-11T21:51:53.148Z,95.09
2018-09-11T21:54:27.049Z,94.09
2018-09-11T21:57:00.275Z,93.42
2018-09-11T21:59:30.363Z,93.50
2018-09-11T22:02:01.344Z,93.37
2018-09-11T22:04:34.793Z,93.91
2018-09-11T22:07:10.237Z,93.56
2018-09-11T22:09:40.240Z,93.82
2018-09-11T22:12:11.516Z,94.14
2018-09-11T22:14:42.747Z,93.80
2018-09-11T22:17:15.941Z,93.88
2018-09-11T22:19:48.439Z,94.59
2018-09-11T22:22:18.538Z,94.91
2018-09-11T22:24:48.827Z,94.01
2018-09-11T22:27:20.513Z,94.19
2018-09-11T22:29:52.488Z,95.03
2018-09-11T22:32:22.407Z,94.56
2018-09-11T22:34:52.444Z,94.22
2018-09-11T23:21:39.852Z,93.52
2018-09-11T23:24:09.841Z,92.67
2018-09-11T23:26:43.868Z,92.81
2018-09-11T23:29:15.581Z,92.68
2018-09-11T23:31:48.326Z,92.51
2018-09-11T23:34:18.925Z,93.39
2018-09-11T23:36:48.880Z,93.53
2018-09-11T23:39:19.045Z,94.00
2018-09-11T23:41:49.472Z,93.29
2018-09-11T23:44:22.016Z,92.95
2018-09-11T23:46:54.405Z,93.29
2018-09-11T23:49:26.558Z,93.17
2018-09-11T23:51:57.262Z,93.19
2018-09-11T23:54:27.367Z,91.41
2018-09-11T23:56:58.838Z,92.28
2018-09-11T23:59:31.419Z,91.79
